North Springfield, Pennsylvania
Current Conditions -  °F | °C
As of 12:51 PM on Friday 21 Nov 2014 (Local Time) from KERI Reporting Station
Overcast Overcast  
Wind Chill: 16°   Ceiling: 3900
Heat Index: 26°   Visibility: 10mi
Dew Point: 11°   Wind: 12mph
Humidity: 53%   Direction: 250°WSW
Pressure: 30.44"   Gusts: NA
Location:  41.99°N, 80.42°W
Report Text: KERI 211751Z 25010KT 10SM OVC039 M03/M12 A3044 RMK AO2 SLP318 T10331117 11033 21044 51014
Loading
Personal Weather Stations






























Interactive Weather Map New forecast layout! Learn more

10-Day Weather Forecast

Advertisements
Track Severe Weather on mobile